Time;durP1;ratioP1;P1;durP2;ratioP2;P2;SDS_P1;SDS_P2;PMS_P1;PMS_P2;Temp;Humidity;BMP_temperature;BMP_pressure;BME280_temperature;BME280_humidity;BME280_pressure;Samples;Min_cycle;Max_cycle;Signal;HPM_P1;HPM_P2
2022/01/10 00:00:37;;;;;;;13.10;2.70;;;;;;;;;;4987119;28;20022;-68
2022/01/10 00:03:04;;;;;;;21.55;2.47;;;;;;;;;;4994635;28;20030;-68
2022/01/10 00:05:30;;;;;;;17.33;3.30;;;;;;;;;;4988448;28;20044;-68
2022/01/10 00:07:56;;;;;;;9.85;2.53;;;;;;;;;;4987458;28;20030;-68
2022/01/10 00:10:22;;;;;;;10.43;1.98;;;;;;;;;;4984063;28;20035;-68
2022/01/10 00:12:48;;;;;;;8.55;2.10;;;;;;;;;;5001656;28;20075;-68
2022/01/10 00:15:16;;;;;;;12.95;2.33;;;;;;;;;;4987183;28;20674;-68
2022/01/10 00:17:45;;;;;;;8.60;1.92;;;;;;;;;;4986162;28;20077;-68
2022/01/10 00:20:13;;;;;;;11.40;2.42;;;;;;;;;;4990983;28;20022;-69
2022/01/10 00:22:40;;;;;;;13.73;2.58;;;;;;;;;;4984586;28;20030;-68
2022/01/10 00:25:07;;;;;;;10.48;1.90;;;;;;;;;;4986424;28;20038;-68
2022/01/10 00:27:33;;;;;;;10.18;2.70;;;;;;;;;;4987975;28;20572;-68
2022/01/10 00:29:59;;;;;;;6.32;2.55;;;;;;;;;;4997483;28;20056;-68
2022/01/10 00:32:25;;;;;;;8.73;1.20;;;;;;;;;;4995506;28;20018;-69
2022/01/10 00:34:52;;;;;;;13.13;2.22;;;;;;;;;;4985871;28;20109;-68
2022/01/10 00:37:18;;;;;;;10.10;2.13;;;;;;;;;;4986337;28;20034;-68
2022/01/10 00:39:46;;;;;;;6.45;1.45;;;;;;;;;;4986041;28;20035;-68
2022/01/10 00:42:13;;;;;;;10.82;1.80;;;;;;;;;;4989201;28;20029;-68
2022/01/10 00:44:45;;;;;;;10.23;2.13;;;;;;;;;;4985345;28;20796;-68
2022/01/10 00:47:11;;;;;;;7.47;1.27;;;;;;;;;;4990169;28;20081;-68
2022/01/10 00:49:37;;;;;;;7.05;1.20;;;;;;;;;;4987313;28;20071;-68
2022/01/10 00:52:04;;;;;;;8.90;1.60;;;;;;;;;;4985176;28;20026;-68
2022/01/10 00:54:30;;;;;;;6.85;1.48;;;;;;;;;;4987608;28;20110;-68
2022/01/10 00:56:56;;;;;;;11.27;1.92;;;;;;;;;;4984844;28;20026;-68
2022/01/10 00:59:23;;;;;;;5.72;1.85;;;;;;;;;;4987588;28;20027;-68
2022/01/10 01:01:49;;;;;;;9.85;2.00;;;;;;;;;;4986956;28;20035;-68
2022/01/10 01:04:15;;;;;;;10.00;1.50;;;;;;;;;;4988094;28;20117;-68
2022/01/10 01:06:42;;;;;;;7.97;1.52;;;;;;;;;;4989081;28;20023;-68
2022/01/10 01:09:11;;;;;;;7.20;1.45;;;;;;;;;;4985821;28;20080;-68
2022/01/10 01:12:11;;;;;;;7.07;1.48;;;;;;;;;;4989774;28;20516;-68
2022/01/10 01:14:37;;;;;;;6.28;1.58;;;;;;;;;;4986363;28;20089;-70
2022/01/10 01:17:13;;;;;;;9.80;1.80;;;;;;;;;;4986638;28;20041;-68
2022/01/10 01:25:10;;;;;;;9.45;1.05;;;;;;;;;;4990140;28;20089;-68
2022/01/10 01:27:37;;;;;;;7.72;1.38;;;;;;;;;;4986146;28;20030;-68
2022/01/10 01:30:04;;;;;;;8.75;2.17;;;;;;;;;;4989534;28;20034;-68
2022/01/10 01:32:30;;;;;;;10.82;1.17;;;;;;;;;;4985889;28;20019;-68
2022/01/10 01:35:03;;;;;;;5.95;1.00;;;;;;;;;;4986191;28;20098;-68
2022/01/10 01:37:29;;;;;;;6.45;1.05;;;;;;;;;;4989875;28;20088;-68
2022/01/10 01:39:56;;;;;;;5.53;0.90;;;;;;;;;;4987676;28;20105;-68
2022/01/10 01:42:42;;;;;;;10.00;2.13;;;;;;;;;;4991755;28;20487;-68
2022/01/10 01:45:10;;;;;;;9.63;2.17;;;;;;;;;;4987981;28;20031;-68
2022/01/10 01:47:36;;;;;;;8.75;1.60;;;;;;;;;;4986616;28;20031;-68
2022/01/10 01:50:04;;;;;;;7.78;1.70;;;;;;;;;;4986393;28;20046;-68
2022/01/10 01:52:30;;;;;;;12.02;1.55;;;;;;;;;;4993853;28;20030;-68
2022/01/10 01:54:56;;;;;;;6.75;1.30;;;;;;;;;;4984142;28;20022;-68
2022/01/10 01:57:22;;;;;;;7.82;1.52;;;;;;;;;;4985939;28;20126;-72
2022/01/10 01:59:49;;;;;;;5.72;1.30;;;;;;;;;;4990471;28;20072;-68
2022/01/10 02:02:15;;;;;;;8.65;1.63;;;;;;;;;;4985391;28;20056;-68
2022/01/10 02:04:41;;;;;;;7.15;1.52;;;;;;;;;;4991970;28;20022;-68
2022/01/10 02:07:08;;;;;;;7.78;1.50;;;;;;;;;;4984729;28;20026;-68
2022/01/10 02:09:34;;;;;;;8.23;1.70;;;;;;;;;;4990695;28;20434;-68
2022/01/10 02:12:00;;;;;;;6.45;1.48;;;;;;;;;;4986372;28;20034;-68
2022/01/10 02:14:26;;;;;;;6.70;1.45;;;;;;;;;;4986013;28;20033;-68
2022/01/10 02:16:56;;;;;;;12.07;1.48;;;;;;;;;;4987941;28;20282;-68
2022/01/10 02:19:25;;;;;;;10.80;1.63;;;;;;;;;;4987578;28;20166;-68
2022/01/10 02:21:51;;;;;;;4.82;0.90;;;;;;;;;;4985965;28;20089;-68
2022/01/10 02:24:18;;;;;;;4.72;0.95;;;;;;;;;;4993092;28;20030;-68
2022/01/10 02:26:50;;;;;;;7.43;1.35;;;;;;;;;;4989119;28;20052;-68
2022/01/10 02:29:17;;;;;;;6.35;1.20;;;;;;;;;;4989243;28;20032;-68
2022/01/10 02:31:44;;;;;;;9.50;1.20;;;;;;;;;;4987505;28;20085;-68
2022/01/10 02:34:10;;;;;;;8.65;1.77;;;;;;;;;;4998063;28;20040;-68
2022/01/10 02:36:37;;;;;;;10.70;1.48;;;;;;;;;;4989493;28;20053;-68
2022/01/10 02:39:08;;;;;;;14.07;1.48;;;;;;;;;;4993236;28;20038;-68
2022/01/10 02:41:35;;;;;;;7.43;1.60;;;;;;;;;;4990801;28;20590;-68
2022/01/10 02:44:03;;;;;;;8.63;1.58;;;;;;;;;;4990049;28;20019;-68
2022/01/10 02:46:31;;;;;;;11.48;1.60;;;;;;;;;;4994570;28;20046;-68
2022/01/10 02:48:58;;;;;;;6.63;1.20;;;;;;;;;;4988786;28;20085;-68
2022/01/10 02:51:24;;;;;;;10.38;1.45;;;;;;;;;;4988939;28;20822;-68
2022/01/10 02:53:50;;;;;;;9.32;1.30;;;;;;;;;;4989304;28;20062;-68
2022/01/10 02:56:17;;;;;;;5.32;1.00;;;;;;;;;;4987331;28;20101;-68
2022/01/10 02:58:43;;;;;;;8.18;1.08;;;;;;;;;;4989036;28;20033;-68
2022/01/10 03:01:09;;;;;;;6.22;1.10;;;;;;;;;;4994396;28;20080;-68
2022/01/10 03:03:36;;;;;;;4.63;1.00;;;;;;;;;;4991041;28;20101;-68
2022/01/10 03:06:02;;;;;;;5.97;1.65;;;;;;;;;;4988564;28;20033;-68
2022/01/10 03:08:30;;;;;;;6.32;0.70;;;;;;;;;;4988476;28;20031;-68
2022/01/10 03:10:56;;;;;;;4.70;0.88;;;;;;;;;;4992799;28;20117;-68
2022/01/10 03:13:23;;;;;;;6.68;0.70;;;;;;;;;;4987162;28;20030;-68
2022/01/10 03:15:49;;;;;;;4.53;0.75;;;;;;;;;;4988114;28;20034;-68
2022/01/10 03:18:15;;;;;;;7.90;0.90;;;;;;;;;;4988559;28;20074;-68
2022/01/10 03:20:41;;;;;;;5.50;1.20;;;;;;;;;;4988570;28;20036;-68
2022/01/10 03:23:07;;;;;;;4.35;1.38;;;;;;;;;;4988051;28;20413;-68
2022/01/10 03:25:34;;;;;;;5.68;1.13;;;;;;;;;;4995004;28;20026;-68
2022/01/10 03:28:00;;;;;;;4.05;0.90;;;;;;;;;;4989483;28;20042;-68
2022/01/10 03:30:28;;;;;;;4.63;1.10;;;;;;;;;;4988860;28;20029;-68
2022/01/10 03:32:56;;;;;;;8.48;1.40;;;;;;;;;;4988331;28;20042;-68
2022/01/10 03:35:22;;;;;;;3.63;0.90;;;;;;;;;;4990626;28;20113;-68
2022/01/10 03:37:48;;;;;;;5.13;0.80;;;;;;;;;;4985593;28;20544;-68
2022/01/10 03:40:14;;;;;;;5.68;1.00;;;;;;;;;;4985896;28;20490;-68
2022/01/10 03:42:41;;;;;;;5.68;0.80;;;;;;;;;;4988437;28;20034;-68
2022/01/10 03:45:07;;;;;;;2.38;0.80;;;;;;;;;;4984269;28;20065;-68
2022/01/10 03:47:33;;;;;;;6.57;1.73;;;;;;;;;;4982415;28;20034;-68
2022/01/10 03:49:59;;;;;;;5.78;0.77;;;;;;;;;;4987038;28;20544;-68
2022/01/10 03:52:27;;;;;;;4.47;1.73;;;;;;;;;;4983315;28;20033;-68
2022/01/10 03:54:54;;;;;;;5.57;0.93;;;;;;;;;;4983733;28;20031;-68
2022/01/10 03:57:20;;;;;;;8.93;1.17;;;;;;;;;;4985485;28;20026;-69
2022/01/10 03:59:46;;;;;;;4.38;1.05;;;;;;;;;;4989564;28;20061;-68
2022/01/10 04:02:12;;;;;;;4.53;0.80;;;;;;;;;;4983865;28;20030;-68
2022/01/10 04:04:39;;;;;;;4.00;0.80;;;;;;;;;;4980077;28;20080;-68
2022/01/10 04:07:06;;;;;;;8.52;1.30;;;;;;;;;;4980553;28;20387;-68
2022/01/10 04:09:32;;;;;;;5.78;1.30;;;;;;;;;;4979377;28;20262;-68
2022/01/10 04:11:58;;;;;;;8.30;1.55;;;;;;;;;;4979589;28;20022;-68
2022/01/10 04:14:24;;;;;;;6.13;1.23;;;;;;;;;;4980818;28;20473;-68
2022/01/10 04:16:51;;;;;;;8.68;1.17;;;;;;;;;;4983035;28;20026;-68
2022/01/10 04:19:17;;;;;;;6.40;1.05;;;;;;;;;;4983905;28;20031;-68
2022/01/10 04:21:43;;;;;;;2.88;0.70;;;;;;;;;;4984090;28;20027;-68
2022/01/10 04:24:11;;;;;;;2.67;0.88;;;;;;;;;;4980737;28;20034;-68
2022/01/10 04:26:37;;;;;;;1.48;0.55;;;;;;;;;;4980703;28;20085;-68
2022/01/10 04:29:03;;;;;;;4.82;0.70;;;;;;;;;;4979552;28;20026;-68
2022/01/10 04:31:29;;;;;;;4.63;0.55;;;;;;;;;;4980888;28;20591;-68
2022/01/10 04:33:55;;;;;;;3.88;0.68;;;;;;;;;;4980360;28;20674;-68
2022/01/10 04:36:21;;;;;;;2.20;0.45;;;;;;;;;;4978768;28;20048;-68
2022/01/10 04:38:47;;;;;;;4.00;0.90;;;;;;;;;;4980306;28;20041;-68
2022/01/10 04:41:14;;;;;;;3.05;0.60;;;;;;;;;;4980698;28;20065;-67
2022/01/10 04:43:40;;;;;;;4.03;0.60;;;;;;;;;;4986950;28;20498;-68
2022/01/10 04:46:06;;;;;;;3.55;0.63;;;;;;;;;;4980065;28;20050;-68
2022/01/10 04:48:32;;;;;;;4.88;0.85;;;;;;;;;;4982518;28;20034;-68
2022/01/10 04:53:34;;;;;;;2.85;0.82;;;;;;;;;;4982716;28;20045;-68
2022/01/10 04:56:00;;;;;;;2.40;0.60;;;;;;;;;;4982062;28;20084;-68
2022/01/10 04:58:26;;;;;;;2.83;0.70;;;;;;;;;;4982180;28;20038;-67
2022/01/10 05:00:55;;;;;;;3.10;0.43;;;;;;;;;;4981394;28;20045;-68
2022/01/10 05:03:21;;;;;;;4.18;0.88;;;;;;;;;;4988537;28;20177;-68
2022/01/10 05:05:52;;;;;;;4.70;1.02;;;;;;;;;;4981847;28;20038;-68
2022/01/10 05:08:18;;;;;;;3.90;0.90;;;;;;;;;;4989524;28;20034;-68
2022/01/10 05:10:44;;;;;;;5.93;1.00;;;;;;;;;;4983636;28;20038;-68
2022/01/10 05:13:10;;;;;;;4.60;0.98;;;;;;;;;;4979680;28;20464;-68
2022/01/10 05:15:37;;;;;;;1.90;0.68;;;;;;;;;;4979126;28;20101;-68
2022/01/10 05:18:03;;;;;;;7.05;1.02;;;;;;;;;;4979960;28;20043;-68
2022/01/10 05:20:29;;;;;;;6.28;0.90;;;;;;;;;;4979648;28;20621;-68
2022/01/10 05:22:55;;;;;;;7.22;1.65;;;;;;;;;;4978237;28;20758;-68
2022/01/10 05:25:21;;;;;;;5.57;1.05;;;;;;;;;;4979974;28;20500;-68
2022/01/10 05:27:48;;;;;;;9.30;1.33;;;;;;;;;;4979435;28;20545;-68
2022/01/10 05:30:14;;;;;;;7.75;1.60;;;;;;;;;;4978017;28;20035;-67
2022/01/10 05:32:40;;;;;;;6.78;2.08;;;;;;;;;;4989141;28;20040;-68
2022/01/10 05:35:06;;;;;;;9.05;1.75;;;;;;;;;;4981241;28;20046;-68
2022/01/10 05:37:32;;;;;;;6.60;1.83;;;;;;;;;;4979306;28;20106;-68
2022/01/10 05:39:59;;;;;;;11.68;1.55;;;;;;;;;;4985271;28;20026;-68
2022/01/10 05:42:25;;;;;;;6.40;1.15;;;;;;;;;;4980383;28;20522;-68
2022/01/10 05:44:51;;;;;;;3.95;0.75;;;;;;;;;;4979546;28;20105;-68
2022/01/10 05:47:17;;;;;;;8.55;1.20;;;;;;;;;;4986113;28;20050;-69
2022/01/10 05:49:47;;;;;;;3.17;1.15;;;;;;;;;;4978245;28;20028;-68
2022/01/10 05:52:14;;;;;;;5.40;1.15;;;;;;;;;;4977987;28;20030;-68
2022/01/10 05:54:40;;;;;;;9.10;1.52;;;;;;;;;;4979562;28;20033;-68
2022/01/10 05:57:06;;;;;;;5.40;1.40;;;;;;;;;;4981378;28;20026;-68
2022/01/10 05:59:33;;;;;;;9.13;1.55;;;;;;;;;;4988526;28;20027;-68
2022/01/10 06:01:59;;;;;;;10.77;2.55;;;;;;;;;;4983222;28;20053;-68
2022/01/10 06:04:25;;;;;;;4.90;1.33;;;;;;;;;;4983204;28;20092;-68
2022/01/10 06:06:51;;;;;;;6.32;1.67;;;;;;;;;;4983224;28;20388;-68
2022/01/10 06:09:17;;;;;;;8.60;1.85;;;;;;;;;;4982280;28;20030;-68
2022/01/10 06:11:45;;;;;;;13.57;2.25;;;;;;;;;;4981667;28;20026;-67
2022/01/10 06:14:11;;;;;;;4.78;1.48;;;;;;;;;;4982844;28;20034;-68
2022/01/10 06:16:38;;;;;;;6.05;1.40;;;;;;;;;;4982677;28;20486;-68
2022/01/10 06:19:04;;;;;;;8.38;1.70;;;;;;;;;;4981367;28;20038;-68
2022/01/10 06:21:30;;;;;;;8.50;1.98;;;;;;;;;;4982316;28;20041;-68
2022/01/10 06:23:56;;;;;;;7.20;1.75;;;;;;;;;;4982677;28;20033;-73
2022/01/10 06:26:22;;;;;;;9.55;2.28;;;;;;;;;;4982506;28;20669;-68
2022/01/10 06:28:49;;;;;;;10.30;1.50;;;;;;;;;;4981950;28;20390;-68
2022/01/10 06:31:15;;;;;;;11.75;1.73;;;;;;;;;;4981241;28;20027;-68
2022/01/10 06:33:41;;;;;;;8.75;1.85;;;;;;;;;;4983965;28;20030;-68
2022/01/10 06:36:09;;;;;;;11.13;2.13;;;;;;;;;;4987077;28;20100;-68
2022/01/10 06:38:35;;;;;;;6.55;1.67;;;;;;;;;;4982124;28;20053;-68
2022/01/10 06:41:01;;;;;;;9.05;1.40;;;;;;;;;;4983024;28;20026;-68
2022/01/10 06:43:28;;;;;;;8.32;1.77;;;;;;;;;;4982965;28;20068;-67
2022/01/10 06:45:54;;;;;;;8.73;1.80;;;;;;;;;;4985743;28;20484;-68
2022/01/10 06:48:20;;;;;;;14.88;2.63;;;;;;;;;;4984237;28;20038;-68
2022/01/10 06:50:48;;;;;;;7.95;1.77;;;;;;;;;;4985512;28;20096;-68
2022/01/10 06:53:17;;;;;;;4.90;1.23;;;;;;;;;;4989158;28;20135;-68
2022/01/10 06:55:43;;;;;;;5.95;1.20;;;;;;;;;;4984083;28;20034;-68
2022/01/10 06:58:09;;;;;;;3.20;0.73;;;;;;;;;;4983965;28;20045;-68
2022/01/10 07:00:36;;;;;;;6.80;1.48;;;;;;;;;;4982962;28;20033;-68
2022/01/10 07:03:02;;;;;;;7.68;1.33;;;;;;;;;;4983249;28;20038;-69
2022/01/10 07:05:29;;;;;;;8.48;1.23;;;;;;;;;;4990478;28;20054;-70
2022/01/10 07:07:55;;;;;;;9.57;1.60;;;;;;;;;;4983029;28;20037;-69
2022/01/10 07:10:22;;;;;;;10.75;2.65;;;;;;;;;;4983374;28;20030;-68
2022/01/10 07:12:48;;;;;;;11.07;2.15;;;;;;;;;;4982703;28;20395;-69
2022/01/10 07:15:15;;;;;;;9.27;1.98;;;;;;;;;;4983861;28;20057;-69
2022/01/10 07:17:41;;;;;;;7.38;1.05;;;;;;;;;;4988813;28;20048;-69
2022/01/10 07:20:07;;;;;;;5.82;1.13;;;;;;;;;;4987859;28;20326;-70
2022/01/10 07:22:35;;;;;;;6.85;1.30;;;;;;;;;;4993553;28;20798;-70
2022/01/10 07:25:01;;;;;;;9.90;1.10;;;;;;;;;;4982668;28;20026;-68
2022/01/10 07:27:27;;;;;;;4.10;0.90;;;;;;;;;;4983477;28;20124;-68
2022/01/10 07:29:53;;;;;;;8.20;1.55;;;;;;;;;;4983033;28;20151;-67
2022/01/10 07:32:20;;;;;;;5.13;1.13;;;;;;;;;;4982616;28;20034;-67
2022/01/10 07:34:46;;;;;;;6.78;1.20;;;;;;;;;;4987241;28;20125;-67
2022/01/10 07:37:12;;;;;;;6.68;1.55;;;;;;;;;;4981798;28;20073;-67
2022/01/10 07:39:39;;;;;;;5.15;1.13;;;;;;;;;;4981288;28;20034;-67
2022/01/10 07:42:05;;;;;;;9.18;1.13;;;;;;;;;;4981253;28;20531;-67
2022/01/10 07:44:31;;;;;;;3.33;0.90;;;;;;;;;;4981129;28;20513;-67
2022/01/10 07:46:58;;;;;;;2.08;0.80;;;;;;;;;;4979880;28;20038;-67
2022/01/10 07:49:25;;;;;;;6.05;1.42;;;;;;;;;;4981087;28;20084;-67
2022/01/10 07:51:51;;;;;;;10.10;1.75;;;;;;;;;;4981332;28;20537;-67
2022/01/10 07:54:17;;;;;;;4.03;0.80;;;;;;;;;;4981103;28;20026;-68
2022/01/10 07:56:43;;;;;;;3.92;1.23;;;;;;;;;;4980333;28;20030;-67
2022/01/10 07:59:10;;;;;;;3.25;0.80;;;;;;;;;;4978783;28;20703;-67
2022/01/10 08:01:38;;;;;;;6.00;1.25;;;;;;;;;;4986110;28;20041;-67
2022/01/10 08:04:04;;;;;;;3.78;1.17;;;;;;;;;;4981125;28;20030;-67
2022/01/10 08:06:30;;;;;;;5.03;1.02;;;;;;;;;;4985275;28;20030;-67
2022/01/10 08:08:56;;;;;;;9.32;1.52;;;;;;;;;;4978867;28;20033;-68
2022/01/10 08:11:26;;;;;;;9.40;1.90;;;;;;;;;;4980777;28;20030;-68
2022/01/10 08:13:52;;;;;;;7.47;2.35;;;;;;;;;;4979007;28;20493;-67
2022/01/10 08:16:19;;;;;;;11.30;1.83;;;;;;;;;;4981433;28;20041;-67
2022/01/10 08:18:45;;;;;;;12.77;2.47;;;;;;;;;;4981125;28;20068;-67
2022/01/10 08:21:11;;;;;;;13.68;1.90;;;;;;;;;;4980516;28;20023;-67
2022/01/10 08:23:37;;;;;;;10.10;1.95;;;;;;;;;;4979174;28;20022;-67
2022/01/10 08:26:08;;;;;;;8.55;1.45;;;;;;;;;;4987364;28;20037;-68
2022/01/10 08:28:35;;;;;;;12.25;1.75;;;;;;;;;;4980884;28;20037;-68
2022/01/10 08:31:01;;;;;;;10.35;2.35;;;;;;;;;;4979960;28;20478;-67
2022/01/10 08:33:27;;;;;;;9.30;1.55;;;;;;;;;;4981798;28;20109;-67
2022/01/10 08:35:54;;;;;;;4.43;1.67;;;;;;;;;;4980363;28;20479;-68
2022/01/10 08:38:21;;;;;;;7.80;2.17;;;;;;;;;;4987875;28;20045;-68
2022/01/10 08:40:47;;;;;;;6.57;1.60;;;;;;;;;;4979832;28;20030;-68
2022/01/10 08:43:16;;;;;;;5.43;1.10;;;;;;;;;;4980634;28;20030;-71
2022/01/10 08:45:42;;;;;;;8.52;1.33;;;;;;;;;;4984840;28;20054;-68
2022/01/10 08:48:09;;;;;;;9.75;1.92;;;;;;;;;;4981703;28;20291;-69
2022/01/10 08:50:36;;;;;;;4.25;1.10;;;;;;;;;;4980012;28;20189;-69
2022/01/10 08:53:04;;;;;;;7.05;1.35;;;;;;;;;;4980016;28;20033;-69
2022/01/10 08:55:30;;;;;;;7.85;1.48;;;;;;;;;;4980220;28;20038;-67
2022/01/10 08:57:56;;;;;;;5.90;2.13;;;;;;;;;;4978279;28;20120;-68
2022/01/10 09:00:23;;;;;;;8.48;1.70;;;;;;;;;;4980372;28;20674;-67
2022/01/10 09:02:49;;;;;;;6.95;1.60;;;;;;;;;;4980195;28;20026;-68
2022/01/10 09:05:15;;;;;;;7.85;1.45;;;;;;;;;;4981725;28;20525;-68
2022/01/10 09:07:41;;;;;;;6.30;1.33;;;;;;;;;;4983278;28;20030;-75
2022/01/10 09:10:08;;;;;;;6.95;1.38;;;;;;;;;;4978939;28;20034;-68
2022/01/10 09:12:34;;;;;;;7.25;1.80;;;;;;;;;;4977440;28;20023;-70
2022/01/10 09:15:00;;;;;;;7.22;1.30;;;;;;;;;;4982613;28;20490;-67
2022/01/10 09:17:26;;;;;;;7.55;1.10;;;;;;;;;;4978050;28;20398;-68
2022/01/10 09:19:53;;;;;;;6.07;1.40;;;;;;;;;;4989503;28;20054;-68
2022/01/10 09:22:19;;;;;;;6.40;1.45;;;;;;;;;;4981516;28;20031;-68
2022/01/10 09:24:46;;;;;;;15.10;2.03;;;;;;;;;;4986765;28;20862;-68
2022/01/10 09:27:13;;;;;;;12.32;2.95;;;;;;;;;;4995554;28;20030;-69
2022/01/10 09:29:40;;;;;;;12.75;2.05;;;;;;;;;;4980776;28;20093;-67
2022/01/10 09:32:07;;;;;;;8.65;1.55;;;;;;;;;;4981330;28;20138;-68
2022/01/10 09:34:33;;;;;;;14.30;1.92;;;;;;;;;;4986804;28;20026;-67
2022/01/10 09:36:59;;;;;;;7.95;1.92;;;;;;;;;;4985671;28;20031;-68
2022/01/10 09:39:25;;;;;;;5.95;1.30;;;;;;;;;;4983472;28;20038;-68
2022/01/10 09:41:52;;;;;;;7.13;2.20;;;;;;;;;;4989057;28;20097;-68
2022/01/10 09:44:18;;;;;;;10.35;1.95;;;;;;;;;;4983806;28;20046;-67
2022/01/10 09:46:47;;;;;;;9.60;1.98;;;;;;;;;;4990287;28;20053;-68
2022/01/10 09:49:14;;;;;;;14.63;2.10;;;;;;;;;;4986140;28;20030;-67
2022/01/10 09:51:40;;;;;;;5.47;1.45;;;;;;;;;;4982765;28;20034;-68
2022/01/10 09:54:06;;;;;;;6.78;1.00;;;;;;;;;;4992017;28;20030;-68
2022/01/10 09:56:33;;;;;;;6.55;1.45;;;;;;;;;;4985572;28;20049;-73
2022/01/10 09:59:00;;;;;;;4.93;1.42;;;;;;;;;;4981504;28;20042;-69
2022/01/10 10:01:27;;;;;;;10.10;1.55;;;;;;;;;;4987044;28;20410;-68
2022/01/10 10:03:58;;;;;;;6.93;1.20;;;;;;;;;;4985373;28;20540;-67
2022/01/10 10:06:24;;;;;;;7.55;1.42;;;;;;;;;;4985134;28;20030;-68
2022/01/10 10:08:51;;;;;;;6.93;1.05;;;;;;;;;;4985197;28;20037;-68
2022/01/10 10:11:17;;;;;;;5.70;1.30;;;;;;;;;;4989742;28;20026;-67
2022/01/10 10:13:43;;;;;;;7.53;1.38;;;;;;;;;;4985809;28;20036;-67
2022/01/10 10:16:13;;;;;;;8.30;1.27;;;;;;;;;;4984556;28;20664;-67
2022/01/10 10:18:39;;;;;;;5.22;1.38;;;;;;;;;;4983576;28;20069;-68
2022/01/10 10:21:11;;;;;;;5.38;1.20;;;;;;;;;;4986142;28;20022;-68
2022/01/10 10:23:40;;;;;;;8.73;1.42;;;;;;;;;;4991171;28;20145;-68
2022/01/10 10:26:06;;;;;;;8.93;1.80;;;;;;;;;;4992556;28;20117;-67
2022/01/10 10:28:35;;;;;;;8.68;2.40;;;;;;;;;;4985383;28;20084;-67
2022/01/10 10:31:02;;;;;;;8.13;1.90;;;;;;;;;;4987139;28;20096;-67
2022/01/10 10:33:28;;;;;;;7.70;1.50;;;;;;;;;;4989780;28;20053;-67
2022/01/10 10:35:56;;;;;;;6.05;1.17;;;;;;;;;;4984476;28;20042;-67
2022/01/10 10:38:22;;;;;;;6.22;1.08;;;;;;;;;;4984235;28;20406;-68
2022/01/10 10:40:48;;;;;;;12.90;2.90;;;;;;;;;;4983364;28;20023;-69
2022/01/10 10:43:15;;;;;;;11.82;1.33;;;;;;;;;;4982725;28;20426;-70
2022/01/10 10:45:41;;;;;;;7.63;1.67;;;;;;;;;;4990784;28;20050;-68
2022/01/10 10:48:09;;;;;;;7.88;1.50;;;;;;;;;;4986120;28;20187;-69
2022/01/10 10:50:44;;;;;;;6.40;2.22;;;;;;;;;;4990406;28;20031;-67
2022/01/10 10:53:13;;;;;;;6.68;1.83;;;;;;;;;;4982035;28;20031;-68
2022/01/10 10:55:40;;;;;;;11.00;2.50;;;;;;;;;;4981944;28;20022;-68
2022/01/10 10:58:07;;;;;;;8.13;2.03;;;;;;;;;;4980309;28;20057;-67
2022/01/10 11:00:34;;;;;;;9.20;1.83;;;;;;;;;;4980251;28;20078;-67
2022/01/10 11:03:00;;;;;;;14.38;1.98;;;;;;;;;;4986011;28;20038;-68
2022/01/10 11:05:26;;;;;;;14.13;1.80;;;;;;;;;;4984320;28;20038;-70
2022/01/10 11:07:53;;;;;;;9.88;3.08;;;;;;;;;;4990008;28;20663;-68
2022/01/10 11:10:19;;;;;;;4.05;1.20;;;;;;;;;;4982756;28;20030;-67
2022/01/10 11:12:49;;;;;;;9.60;1.60;;;;;;;;;;4982871;28;20084;-68
2022/01/10 11:15:15;;;;;;;6.47;1.80;;;;;;;;;;4984599;28;20042;-74
2022/01/10 11:17:42;;;;;;;8.55;1.70;;;;;;;;;;4988920;28;20065;-68
2022/01/10 11:20:13;;;;;;;7.50;1.63;;;;;;;;;;4988501;28;20026;-68
2022/01/10 11:22:50;;;;;;;8.13;1.52;;;;;;;;;;4981978;28;20026;-68
2022/01/10 11:25:22;;;;;;;8.55;2.35;;;;;;;;;;4979506;28;20035;-69
2022/01/10 11:27:50;;;;;;;6.40;1.67;;;;;;;;;;4980808;28;20141;-67
2022/01/10 11:30:19;;;;;;;9.02;2.15;;;;;;;;;;4979818;28;20469;-68
2022/01/10 11:33:05;;;;;;;8.45;1.75;;;;;;;;;;4988603;28;20026;-67
2022/01/10 11:35:42;;;;;;;5.07;1.05;;;;;;;;;;4979864;28;20030;-68
2022/01/10 11:38:29;;;;;;;5.20;1.88;;;;;;;;;;4987942;28;20111;-68
2022/01/10 11:41:08;;;;;;;4.15;1.10;;;;;;;;;;4981417;28;20034;-67
2022/01/10 11:43:43;;;;;;;11.32;1.58;;;;;;;;;;4991708;28;20085;-70
2022/01/10 11:46:24;;;;;;;5.72;1.35;;;;;;;;;;4985070;28;20085;-73
2022/01/10 11:49:00;;;;;;;4.38;1.88;;;;;;;;;;4983164;28;20026;-70
2022/01/10 11:51:27;;;;;;;10.93;2.15;;;;;;;;;;4980593;28;20023;-70
2022/01/10 11:53:55;;;;;;;5.47;1.48;;;;;;;;;;4980017;28;20038;-71
2022/01/10 11:56:32;;;;;;;3.10;1.13;;;;;;;;;;4987665;28;20060;-69
2022/01/10 11:59:07;;;;;;;5.78;1.70;;;;;;;;;;4980303;28;20062;-70
2022/01/10 12:01:38;;;;;;;7.65;1.92;;;;;;;;;;4980558;28;20034;-69
2022/01/10 12:04:04;;;;;;;8.15;2.45;;;;;;;;;;4980663;28;20109;-69
2022/01/10 12:06:31;;;;;;;6.47;1.85;;;;;;;;;;4981117;28;20042;-69
2022/01/10 12:08:58;;;;;;;6.60;1.77;;;;;;;;;;4977951;28;20023;-69
2022/01/10 12:11:25;;;;;;;8.85;1.92;;;;;;;;;;4980539;28;20553;-69
2022/01/10 12:13:53;;;;;;;7.25;1.75;;;;;;;;;;4978336;28;20105;-69
2022/01/10 12:16:19;;;;;;;9.90;2.08;;;;;;;;;;4979538;28;20061;-72
2022/01/10 12:18:46;;;;;;;7.15;2.10;;;;;;;;;;4980136;28;20061;-70
2022/01/10 12:21:13;;;;;;;4.57;1.70;;;;;;;;;;4979155;28;20496;-69
2022/01/10 12:23:40;;;;;;;12.77;1.80;;;;;;;;;;4980174;28;20041;-68
2022/01/10 12:26:06;;;;;;;10.15;2.58;;;;;;;;;;4981104;28;20105;-69
2022/01/10 12:28:32;;;;;;;7.95;2.58;;;;;;;;;;4986974;28;20561;-69
2022/01/10 12:31:02;;;;;;;7.22;1.92;;;;;;;;;;4979101;28;20033;-70
2022/01/10 12:33:29;;;;;;;6.10;3.95;;;;;;;;;;4987896;28;20048;-69
2022/01/10 12:35:55;;;;;;;4.60;1.63;;;;;;;;;;4979775;28;20023;-71
2022/01/10 12:38:22;;;;;;;11.30;3.42;;;;;;;;;;4987530;28;20046;-69
2022/01/10 12:40:51;;;;;;;5.68;2.33;;;;;;;;;;4984276;28;20128;-73
2022/01/10 12:43:18;;;;;;;5.50;1.92;;;;;;;;;;4978430;28;20058;-71
2022/01/10 12:45:44;;;;;;;5.50;1.95;;;;;;;;;;4987053;28;20647;-72
2022/01/10 12:48:11;;;;;;;4.97;1.42;;;;;;;;;;4987050;28;20038;-69
2022/01/10 12:50:38;;;;;;;8.82;3.13;;;;;;;;;;4982740;28;20118;-68
2022/01/10 12:53:04;;;;;;;5.53;1.98;;;;;;;;;;4983634;28;20030;-68
2022/01/10 12:55:31;;;;;;;6.15;2.42;;;;;;;;;;4979242;28;20034;-69
2022/01/10 12:57:57;;;;;;;7.85;1.67;;;;;;;;;;4979666;28;20038;-68
2022/01/10 13:00:23;;;;;;;7.68;2.25;;;;;;;;;;4980127;28;20079;-68
2022/01/10 13:02:49;;;;;;;5.82;1.83;;;;;;;;;;4978252;28;20080;-70
2022/01/10 13:05:20;;;;;;;5.22;1.92;;;;;;;;;;4978766;28;20486;-69
2022/01/10 13:07:47;;;;;;;6.57;1.90;;;;;;;;;;4979387;28;20034;-70
2022/01/10 13:10:21;;;;;;;8.40;2.00;;;;;;;;;;4979773;28;20125;-69
2022/01/10 13:12:54;;;;;;;9.50;2.08;;;;;;;;;;4979486;28;20027;-69
2022/01/10 13:15:21;;;;;;;8.30;2.08;;;;;;;;;;4980981;28;20038;-68
2022/01/10 13:17:54;;;;;;;8.52;2.20;;;;;;;;;;4982127;28;20515;-69
2022/01/10 13:20:22;;;;;;;3.97;1.55;;;;;;;;;;4979856;28;20038;-69
2022/01/10 13:22:48;;;;;;;4.22;1.50;;;;;;;;;;4987208;28;20636;-73
2022/01/10 13:25:16;;;;;;;8.18;1.80;;;;;;;;;;4978978;28;20731;-72
2022/01/10 13:27:50;;;;;;;6.88;1.67;;;;;;;;;;4984063;28;20040;-69
2022/01/10 13:30:18;;;;;;;8.07;3.00;;;;;;;;;;4980310;28;20041;-70
2022/01/10 13:32:47;;;;;;;12.10;2.10;;;;;;;;;;4980057;28;20030;-69
2022/01/10 13:35:19;;;;;;;4.75;1.70;;;;;;;;;;4986906;28;20038;-69
2022/01/10 13:38:04;;;;;;;4.68;1.77;;;;;;;;;;4979360;28;20030;-69
2022/01/10 13:40:33;;;;;;;12.65;2.40;;;;;;;;;;4986884;28;20662;-70
2022/01/10 13:43:04;;;;;;;12.82;2.90;;;;;;;;;;4978568;28;20038;-69
2022/01/10 13:45:41;;;;;;;10.30;2.80;;;;;;;;;;4981042;28;20772;-68
2022/01/10 13:48:09;;;;;;;12.82;4.40;;;;;;;;;;4989745;28;20109;-69
2022/01/10 13:50:35;;;;;;;15.45;2.75;;;;;;;;;;4980537;28;20030;-68
2022/01/10 13:53:12;;;;;;;19.88;5.03;;;;;;;;;;4987114;28;20022;-69
2022/01/10 13:55:39;;;;;;;16.05;5.18;;;;;;;;;;4977847;28;20040;-69
2022/01/10 13:58:09;;;;;;;12.85;3.25;;;;;;;;;;4983066;28;20037;-69
2022/01/10 14:00:38;;;;;;;8.35;2.38;;;;;;;;;;4986929;28;20030;-69
2022/01/10 14:03:04;;;;;;;3.95;2.30;;;;;;;;;;4979183;28;20185;-69
2022/01/10 14:05:30;;;;;;;6.07;2.20;;;;;;;;;;4987059;28;20034;-68
2022/01/10 14:07:59;;;;;;;7.45;2.30;;;;;;;;;;4977904;28;20030;-73
2022/01/10 14:10:28;;;;;;;6.03;1.95;;;;;;;;;;4980143;28;20031;-69
2022/01/10 14:12:54;;;;;;;4.82;2.35;;;;;;;;;;4983070;28;20030;-69
2022/01/10 14:15:30;;;;;;;5.50;1.73;;;;;;;;;;4978920;28;20562;-70
2022/01/10 14:17:57;;;;;;;6.65;2.00;;;;;;;;;;4982295;28;20112;-69
2022/01/10 14:20:24;;;;;;;11.18;2.10;;;;;;;;;;4981179;28;20038;-69
2022/01/10 14:22:51;;;;;;;27.60;3.22;;;;;;;;;;4982486;28;20057;-69
2022/01/10 14:25:19;;;;;;;8.10;1.73;;;;;;;;;;4982581;28;20041;-69
2022/01/10 14:27:46;;;;;;;5.70;2.03;;;;;;;;;;4981007;28;20617;-71
2022/01/10 14:30:12;;;;;;;6.57;1.70;;;;;;;;;;4982942;28;20041;-69
2022/01/10 14:32:39;;;;;;;6.93;1.98;;;;;;;;;;4982917;28;20045;-70
2022/01/10 14:35:05;;;;;;;11.70;2.60;;;;;;;;;;4982455;28;20606;-69
2022/01/10 14:37:32;;;;;;;8.98;2.63;;;;;;;;;;4980870;28;20029;-71
2022/01/10 14:39:58;;;;;;;10.80;2.10;;;;;;;;;;4982814;28;20034;-69
2022/01/10 14:42:29;;;;;;;6.00;2.28;;;;;;;;;;4981438;28;20154;-70
2022/01/10 14:44:55;;;;;;;8.25;1.70;;;;;;;;;;4981638;28;20034;-69
2022/01/10 14:47:21;;;;;;;9.52;1.77;;;;;;;;;;4989189;28;20042;-69
2022/01/10 14:49:47;;;;;;;6.93;1.52;;;;;;;;;;4986119;28;20052;-69